sensor_id;sensor_type;location;lat;lon;timestamp;P1;durP1;ratioP1;P2;durP2;ratioP2
64816;SDS011;69411;45.656;11.740;2023-06-14T00:00:21;10.60;;;7.68;;
64816;SDS011;69411;45.656;11.740;2023-06-14T00:02:47;9.43;;;6.68;;
64816;SDS011;69411;45.656;11.740;2023-06-14T00:05:14;11.23;;;7.53;;
64816;SDS011;69411;45.656;11.740;2023-06-14T00:07:40;12.32;;;7.45;;
64816;SDS011;69411;45.656;11.740;2023-06-14T00:10:13;13.85;;;7.10;;
64816;SDS011;69411;45.656;11.740;2023-06-14T00:12:40;11.93;;;6.93;;
64816;SDS011;69411;45.656;11.740;2023-06-14T00:15:06;10.80;;;7.32;;
64816;SDS011;69411;45.656;11.740;2023-06-14T00:17:34;9.45;;;6.00;;
64816;SDS011;69411;45.656;11.740;2023-06-14T00:20:01;9.50;;;6.60;;
64816;SDS011;69411;45.656;11.740;2023-06-14T00:22:31;11.63;;;6.85;;
64816;SDS011;69411;45.656;11.740;2023-06-14T00:24:58;9.57;;;5.78;;
64816;SDS011;69411;45.656;11.740;2023-06-14T00:27:24;9.60;;;6.88;;
64816;SDS011;69411;45.656;11.740;2023-06-14T00:29:51;7.43;;;5.30;;
64816;SDS011;69411;45.656;11.740;2023-06-14T00:32:18;7.65;;;5.15;;
64816;SDS011;69411;45.656;11.740;2023-06-14T00:34:44;8.43;;;5.15;;
64816;SDS011;69411;45.656;11.740;2023-06-14T00:37:10;7.70;;;5.40;;
64816;SDS011;69411;45.656;11.740;2023-06-14T00:39:36;11.15;;;5.43;;
64816;SDS011;69411;45.656;11.740;2023-06-14T00:42:02;7.47;;;5.57;;
64816;SDS011;69411;45.656;11.740;2023-06-14T00:44:28;7.30;;;4.70;;
64816;SDS011;69411;45.656;11.740;2023-06-14T00:46:54;8.00;;;5.13;;
64816;SDS011;69411;45.656;11.740;2023-06-14T00:49:20;6.70;;;4.65;;
64816;SDS011;69411;45.656;11.740;2023-06-14T00:51:46;7.05;;;4.93;;
64816;SDS011;69411;45.656;11.740;2023-06-14T00:54:12;7.32;;;5.18;;
64816;SDS011;69411;45.656;11.740;2023-06-14T00:56:38;8.57;;;6.28;;
64816;SDS011;69411;45.656;11.740;2023-06-14T00:59:05;9.35;;;6.22;;
64816;SDS011;69411;45.656;11.740;2023-06-14T01:01:32;9.13;;;5.45;;
64816;SDS011;69411;45.656;11.740;2023-06-14T01:03:59;8.68;;;6.10;;
64816;SDS011;69411;45.656;11.740;2023-06-14T01:06:41;7.88;;;5.65;;
64816;SDS011;69411;45.656;11.740;2023-06-14T01:09:35;7.50;;;5.25;;
64816;SDS011;69411;45.656;11.740;2023-06-14T01:12:13;6.45;;;4.57;;
64816;SDS011;69411;45.656;11.740;2023-06-14T01:14:56;8.68;;;5.43;;
64816;SDS011;69411;45.656;11.740;2023-06-14T01:17:24;9.18;;;5.00;;
64816;SDS011;69411;45.656;11.740;2023-06-14T01:19:52;6.88;;;4.85;;
64816;SDS011;69411;45.656;11.740;2023-06-14T01:22:24;7.80;;;5.32;;
64816;SDS011;69411;45.656;11.740;2023-06-14T01:24:52;8.32;;;5.18;;
64816;SDS011;69411;45.656;11.740;2023-06-14T01:27:26;6.97;;;4.57;;
64816;SDS011;69411;45.656;11.740;2023-06-14T01:29:57;8.25;;;4.90;;
64816;SDS011;69411;45.656;11.740;2023-06-14T01:32:26;7.00;;;4.43;;
64816;SDS011;69411;45.656;11.740;2023-06-14T01:34:53;6.15;;;4.40;;
64816;SDS011;69411;45.656;11.740;2023-06-14T01:37:19;6.45;;;4.47;;
64816;SDS011;69411;45.656;11.740;2023-06-14T01:39:47;6.60;;;4.65;;
64816;SDS011;69411;45.656;11.740;2023-06-14T01:42:15;6.57;;;4.78;;
64816;SDS011;69411;45.656;11.740;2023-06-14T01:44:42;7.47;;;5.03;;
64816;SDS011;69411;45.656;11.740;2023-06-14T01:47:09;6.65;;;4.38;;
64816;SDS011;69411;45.656;11.740;2023-06-14T01:49:36;6.05;;;4.57;;
64816;SDS011;69411;45.656;11.740;2023-06-14T01:52:03;6.95;;;4.72;;
64816;SDS011;69411;45.656;11.740;2023-06-14T01:54:29;9.75;;;4.90;;
64816;SDS011;69411;45.656;11.740;2023-06-14T01:56:56;7.03;;;4.72;;
64816;SDS011;69411;45.656;11.740;2023-06-14T01:59:22;7.28;;;4.55;;
64816;SDS011;69411;45.656;11.740;2023-06-14T02:01:48;7.32;;;4.90;;
64816;SDS011;69411;45.656;11.740;2023-06-14T02:04:14;6.72;;;4.68;;
64816;SDS011;69411;45.656;11.740;2023-06-14T02:06:40;8.25;;;4.90;;
64816;SDS011;69411;45.656;11.740;2023-06-14T02:09:06;6.50;;;4.72;;
64816;SDS011;69411;45.656;11.740;2023-06-14T02:11:32;9.18;;;4.88;;
64816;SDS011;69411;45.656;11.740;2023-06-14T02:13:58;7.50;;;4.75;;
64816;SDS011;69411;45.656;11.740;2023-06-14T02:16:25;6.28;;;4.60;;
64816;SDS011;69411;45.656;11.740;2023-06-14T02:18:53;6.65;;;4.75;;
64816;SDS011;69411;45.656;11.740;2023-06-14T02:21:19;8.70;;;5.30;;
64816;SDS011;69411;45.656;11.740;2023-06-14T02:23:45;7.90;;;5.30;;
64816;SDS011;69411;45.656;11.740;2023-06-14T02:26:11;9.98;;;5.30;;
64816;SDS011;69411;45.656;11.740;2023-06-14T02:28:37;7.07;;;4.60;;
64816;SDS011;69411;45.656;11.740;2023-06-14T02:31:03;7.22;;;4.68;;
64816;SDS011;69411;45.656;11.740;2023-06-14T02:33:29;6.18;;;4.43;;
64816;SDS011;69411;45.656;11.740;2023-06-14T02:35:55;5.38;;;4.30;;
64816;SDS011;69411;45.656;11.740;2023-06-14T02:38:21;7.05;;;4.80;;
64816;SDS011;69411;45.656;11.740;2023-06-14T02:40:48;5.90;;;4.30;;
64816;SDS011;69411;45.656;11.740;2023-06-14T02:43:13;8.70;;;4.30;;
64816;SDS011;69411;45.656;11.740;2023-06-14T02:45:40;7.43;;;4.50;;
64816;SDS011;69411;45.656;11.740;2023-06-14T02:48:06;6.28;;;4.45;;
64816;SDS011;69411;45.656;11.740;2023-06-14T02:50:32;8.88;;;6.07;;
64816;SDS011;69411;45.656;11.740;2023-06-14T02:52:58;5.93;;;4.05;;
64816;SDS011;69411;45.656;11.740;2023-06-14T02:55:24;6.00;;;4.22;;
64816;SDS011;69411;45.656;11.740;2023-06-14T02:57:51;7.00;;;4.70;;
64816;SDS011;69411;45.656;11.740;2023-06-14T03:00:18;6.00;;;4.35;;
64816;SDS011;69411;45.656;11.740;2023-06-14T03:02:44;7.13;;;4.85;;
64816;SDS011;69411;45.656;11.740;2023-06-14T03:05:11;7.60;;;4.82;;
64816;SDS011;69411;45.656;11.740;2023-06-14T03:07:38;6.88;;;4.80;;
64816;SDS011;69411;45.656;11.740;2023-06-14T03:10:07;6.93;;;4.47;;
64816;SDS011;69411;45.656;11.740;2023-06-14T03:12:34;5.88;;;4.25;;
64816;SDS011;69411;45.656;11.740;2023-06-14T03:15:01;6.53;;;4.50;;
64816;SDS011;69411;45.656;11.740;2023-06-14T03:17:28;8.43;;;5.18;;
64816;SDS011;69411;45.656;11.740;2023-06-14T03:19:57;5.47;;;4.35;;
64816;SDS011;69411;45.656;11.740;2023-06-14T03:22:23;6.45;;;4.43;;
64816;SDS011;69411;45.656;11.740;2023-06-14T03:24:51;6.38;;;4.45;;
64816;SDS011;69411;45.656;11.740;2023-06-14T03:27:17;8.52;;;4.63;;
64816;SDS011;69411;45.656;11.740;2023-06-14T03:29:43;6.93;;;4.80;;
64816;SDS011;69411;45.656;11.740;2023-06-14T03:32:09;7.00;;;4.70;;
64816;SDS011;69411;45.656;11.740;2023-06-14T03:34:35;7.35;;;4.43;;
64816;SDS011;69411;45.656;11.740;2023-06-14T03:37:04;5.30;;;4.00;;
64816;SDS011;69411;45.656;11.740;2023-06-14T03:39:30;6.75;;;4.68;;
64816;SDS011;69411;45.656;11.740;2023-06-14T03:41:56;6.45;;;4.45;;
64816;SDS011;69411;45.656;11.740;2023-06-14T03:44:22;9.43;;;5.43;;
64816;SDS011;69411;45.656;11.740;2023-06-14T03:46:48;8.15;;;4.28;;
64816;SDS011;69411;45.656;11.740;2023-06-14T03:49:14;7.05;;;4.68;;
64816;SDS011;69411;45.656;11.740;2023-06-14T03:51:42;10.25;;;4.55;;
64816;SDS011;69411;45.656;11.740;2023-06-14T03:54:08;7.72;;;4.88;;
64816;SDS011;69411;45.656;11.740;2023-06-14T03:56:34;8.93;;;5.47;;
64816;SDS011;69411;45.656;11.740;2023-06-14T03:59:01;12.93;;;7.18;;
64816;SDS011;69411;45.656;11.740;2023-06-14T04:01:27;11.57;;;6.22;;
64816;SDS011;69411;45.656;11.740;2023-06-14T04:03:55;11.65;;;6.82;;
64816;SDS011;69411;45.656;11.740;2023-06-14T04:06:22;14.40;;;7.35;;
64816;SDS011;69411;45.656;11.740;2023-06-14T04:08:50;12.40;;;6.50;;
64816;SDS011;69411;45.656;11.740;2023-06-14T04:11:17;12.73;;;7.47;;
64816;SDS011;69411;45.656;11.740;2023-06-14T04:13:43;12.80;;;6.82;;
64816;SDS011;69411;45.656;11.740;2023-06-14T04:16:09;9.98;;;6.03;;
64816;SDS011;69411;45.656;11.740;2023-06-14T04:18:35;10.60;;;6.20;;
64816;SDS011;69411;45.656;11.740;2023-06-14T04:21:01;14.15;;;6.53;;
64816;SDS011;69411;45.656;11.740;2023-06-14T04:23:27;9.52;;;5.93;;
64816;SDS011;69411;45.656;11.740;2023-06-14T04:25:54;11.35;;;6.80;;
64816;SDS011;69411;45.656;11.740;2023-06-14T04:28:20;11.63;;;6.47;;
64816;SDS011;69411;45.656;11.740;2023-06-14T04:30:50;11.32;;;5.97;;
64816;SDS011;69411;45.656;11.740;2023-06-14T04:33:16;8.95;;;5.00;;
64816;SDS011;69411;45.656;11.740;2023-06-14T04:35:42;8.77;;;5.20;;
64816;SDS011;69411;45.656;11.740;2023-06-14T04:38:12;8.35;;;4.47;;
64816;SDS011;69411;45.656;11.740;2023-06-14T04:40:38;7.95;;;5.45;;
64816;SDS011;69411;45.656;11.740;2023-06-14T04:43:08;6.15;;;4.47;;
64816;SDS011;69411;45.656;11.740;2023-06-14T04:45:38;7.40;;;4.55;;
64816;SDS011;69411;45.656;11.740;2023-06-14T04:48:05;8.00;;;4.97;;
64816;SDS011;69411;45.656;11.740;2023-06-14T04:50:32;6.97;;;4.65;;
64816;SDS011;69411;45.656;11.740;2023-06-14T04:52:58;8.68;;;5.45;;
64816;SDS011;69411;45.656;11.740;2023-06-14T04:55:25;6.85;;;4.55;;
64816;SDS011;69411;45.656;11.740;2023-06-14T04:57:51;8.38;;;4.93;;
64816;SDS011;69411;45.656;11.740;2023-06-14T05:00:19;8.32;;;4.70;;
64816;SDS011;69411;45.656;11.740;2023-06-14T05:02:46;5.85;;;3.92;;
64816;SDS011;69411;45.656;11.740;2023-06-14T05:05:14;6.15;;;4.25;;
64816;SDS011;69411;45.656;11.740;2023-06-14T05:07:40;5.60;;;3.53;;
64816;SDS011;69411;45.656;11.740;2023-06-14T05:10:07;5.15;;;3.78;;
64816;SDS011;69411;45.656;11.740;2023-06-14T05:12:33;7.35;;;4.07;;
64816;SDS011;69411;45.656;11.740;2023-06-14T05:14:59;6.05;;;3.72;;
64816;SDS011;69411;45.656;11.740;2023-06-14T05:17:25;6.75;;;4.30;;
64816;SDS011;69411;45.656;11.740;2023-06-14T05:19:53;5.80;;;3.75;;
64816;SDS011;69411;45.656;11.740;2023-06-14T05:22:21;4.50;;;3.42;;
64816;SDS011;69411;45.656;11.740;2023-06-14T05:24:47;7.25;;;3.55;;
64816;SDS011;69411;45.656;11.740;2023-06-14T05:27:13;7.43;;;4.70;;
64816;SDS011;69411;45.656;11.740;2023-06-14T05:29:39;5.68;;;3.85;;
64816;SDS011;69411;45.656;11.740;2023-06-14T05:32:05;6.57;;;3.90;;
64816;SDS011;69411;45.656;11.740;2023-06-14T05:34:31;6.05;;;3.78;;
64816;SDS011;69411;45.656;11.740;2023-06-14T05:36:59;5.88;;;3.45;;
64816;SDS011;69411;45.656;11.740;2023-06-14T05:39:25;4.50;;;3.40;;
64816;SDS011;69411;45.656;11.740;2023-06-14T05:41:51;4.82;;;3.38;;
64816;SDS011;69411;45.656;11.740;2023-06-14T05:44:17;5.68;;;3.30;;
64816;SDS011;69411;45.656;11.740;2023-06-14T05:46:43;5.32;;;3.40;;
64816;SDS011;69411;45.656;11.740;2023-06-14T05:49:09;3.20;;;2.90;;
64816;SDS011;69411;45.656;11.740;2023-06-14T05:51:37;3.63;;;3.13;;
64816;SDS011;69411;45.656;11.740;2023-06-14T05:54:03;4.15;;;3.28;;
64816;SDS011;69411;45.656;11.740;2023-06-14T05:56:29;4.30;;;3.28;;
64816;SDS011;69411;45.656;11.740;2023-06-14T05:58:54;3.72;;;3.08;;
64816;SDS011;69411;45.656;11.740;2023-06-14T06:01:20;5.82;;;3.42;;
64816;SDS011;69411;45.656;11.740;2023-06-14T06:03:47;4.95;;;3.40;;
64816;SDS011;69411;45.656;11.740;2023-06-14T06:06:13;4.32;;;2.90;;
64816;SDS011;69411;45.656;11.740;2023-06-14T06:08:39;6.15;;;4.68;;
64816;SDS011;69411;45.656;11.740;2023-06-14T06:11:06;8.75;;;4.53;;
64816;SDS011;69411;45.656;11.740;2023-06-14T06:13:32;4.55;;;3.40;;
64816;SDS011;69411;45.656;11.740;2023-06-14T06:15:57;4.97;;;3.30;;
64816;SDS011;69411;45.656;11.740;2023-06-14T06:18:23;4.43;;;3.05;;
64816;SDS011;69411;45.656;11.740;2023-06-14T06:20:49;4.13;;;3.30;;
64816;SDS011;69411;45.656;11.740;2023-06-14T06:23:15;4.95;;;3.55;;
64816;SDS011;69411;45.656;11.740;2023-06-14T06:25:42;4.20;;;3.20;;
64816;SDS011;69411;45.656;11.740;2023-06-14T06:28:08;5.45;;;3.30;;
64816;SDS011;69411;45.656;11.740;2023-06-14T06:30:34;3.20;;;2.90;;
64816;SDS011;69411;45.656;11.740;2023-06-14T06:33:01;3.92;;;3.20;;
64816;SDS011;69411;45.656;11.740;2023-06-14T06:35:28;4.15;;;3.30;;
64816;SDS011;69411;45.656;11.740;2023-06-14T06:37:55;3.78;;;3.28;;
64816;SDS011;69411;45.656;11.740;2023-06-14T06:40:22;3.15;;;2.85;;
64816;SDS011;69411;45.656;11.740;2023-06-14T06:42:48;3.90;;;3.53;;
64816;SDS011;69411;45.656;11.740;2023-06-14T06:45:15;4.35;;;3.50;;
64816;SDS011;69411;45.656;11.740;2023-06-14T06:47:41;5.43;;;3.60;;
64816;SDS011;69411;45.656;11.740;2023-06-14T06:50:07;4.65;;;3.60;;
64816;SDS011;69411;45.656;11.740;2023-06-14T06:52:34;5.65;;;3.10;;
64816;SDS011;69411;45.656;11.740;2023-06-14T06:55:00;4.82;;;3.22;;
64816;SDS011;69411;45.656;11.740;2023-06-14T06:57:27;6.10;;;3.83;;
64816;SDS011;69411;45.656;11.740;2023-06-14T06:59:54;5.03;;;3.40;;
64816;SDS011;69411;45.656;11.740;2023-06-14T07:02:20;6.03;;;3.80;;
64816;SDS011;69411;45.656;11.740;2023-06-14T07:04:46;4.07;;;3.40;;
64816;SDS011;69411;45.656;11.740;2023-06-14T07:07:12;5.50;;;3.38;;
64816;SDS011;69411;45.656;11.740;2023-06-14T07:09:38;4.60;;;3.70;;
64816;SDS011;69411;45.656;11.740;2023-06-14T07:12:06;4.85;;;3.72;;
64816;SDS011;69411;45.656;11.740;2023-06-14T07:14:32;5.00;;;4.13;;
64816;SDS011;69411;45.656;11.740;2023-06-14T07:16:58;5.60;;;4.18;;
64816;SDS011;69411;45.656;11.740;2023-06-14T07:19:24;5.63;;;3.92;;
64816;SDS011;69411;45.656;11.740;2023-06-14T07:21:50;5.03;;;3.85;;
64816;SDS011;69411;45.656;11.740;2023-06-14T07:24:16;5.53;;;3.92;;
64816;SDS011;69411;45.656;11.740;2023-06-14T07:26:42;8.18;;;3.90;;
64816;SDS011;69411;45.656;11.740;2023-06-14T07:29:08;8.02;;;4.30;;
64816;SDS011;69411;45.656;11.740;2023-06-14T07:31:34;6.68;;;4.20;;
64816;SDS011;69411;45.656;11.740;2023-06-14T07:34:00;5.93;;;3.90;;
64816;SDS011;69411;45.656;11.740;2023-06-14T07:36:26;5.70;;;3.92;;
64816;SDS011;69411;45.656;11.740;2023-06-14T07:38:51;6.90;;;4.78;;
64816;SDS011;69411;45.656;11.740;2023-06-14T07:41:17;8.57;;;4.35;;
64816;SDS011;69411;45.656;11.740;2023-06-14T07:43:43;6.30;;;4.47;;
64816;SDS011;69411;45.656;11.740;2023-06-14T07:46:09;6.60;;;4.85;;
64816;SDS011;69411;45.656;11.740;2023-06-14T07:48:35;5.85;;;4.22;;
64816;SDS011;69411;45.656;11.740;2023-06-14T07:51:02;8.65;;;4.53;;
64816;SDS011;69411;45.656;11.740;2023-06-14T07:53:28;8.55;;;4.60;;
64816;SDS011;69411;45.656;11.740;2023-06-14T07:55:56;8.23;;;4.32;;
64816;SDS011;69411;45.656;11.740;2023-06-14T07:58:22;6.07;;;4.25;;
64816;SDS011;69411;45.656;11.740;2023-06-14T08:00:48;7.43;;;4.78;;
64816;SDS011;69411;45.656;11.740;2023-06-14T08:03:14;6.40;;;4.32;;
64816;SDS011;69411;45.656;11.740;2023-06-14T08:05:40;6.03;;;4.32;;
64816;SDS011;69411;45.656;11.740;2023-06-14T08:08:06;7.93;;;4.55;;
64816;SDS011;69411;45.656;11.740;2023-06-14T08:10:32;6.10;;;4.13;;
64816;SDS011;69411;45.656;11.740;2023-06-14T08:12:58;5.00;;;4.20;;
64816;SDS011;69411;45.656;11.740;2023-06-14T08:15:24;7.07;;;4.85;;
64816;SDS011;69411;45.656;11.740;2023-06-14T08:17:50;6.90;;;4.57;;
64816;SDS011;69411;45.656;11.740;2023-06-14T08:20:17;6.30;;;4.30;;
64816;SDS011;69411;45.656;11.740;2023-06-14T08:22:43;6.95;;;4.63;;
64816;SDS011;69411;45.656;11.740;2023-06-14T08:25:11;6.50;;;4.80;;
64816;SDS011;69411;45.656;11.740;2023-06-14T08:27:37;6.68;;;3.92;;
64816;SDS011;69411;45.656;11.740;2023-06-14T08:30:03;5.82;;;4.45;;
64816;SDS011;69411;45.656;11.740;2023-06-14T08:32:29;7.28;;;5.43;;
64816;SDS011;69411;45.656;11.740;2023-06-14T08:34:55;8.55;;;4.93;;
64816;SDS011;69411;45.656;11.740;2023-06-14T08:37:21;8.45;;;4.30;;
64816;SDS011;69411;45.656;11.740;2023-06-14T08:39:47;6.70;;;4.35;;
64816;SDS011;69411;45.656;11.740;2023-06-14T08:42:14;5.88;;;3.85;;
64816;SDS011;69411;45.656;11.740;2023-06-14T08:44:40;6.30;;;4.63;;
64816;SDS011;69411;45.656;11.740;2023-06-14T08:47:07;7.03;;;4.40;;
64816;SDS011;69411;45.656;11.740;2023-06-14T08:49:35;7.07;;;4.22;;
64816;SDS011;69411;45.656;11.740;2023-06-14T08:52:05;10.77;;;4.60;;
64816;SDS011;69411;45.656;11.740;2023-06-14T08:54:33;6.45;;;5.10;;
64816;SDS011;69411;45.656;11.740;2023-06-14T08:57:02;6.70;;;4.72;;
64816;SDS011;69411;45.656;11.740;2023-06-14T08:59:32;6.28;;;4.65;;
64816;SDS011;69411;45.656;11.740;2023-06-14T09:02:05;9.15;;;5.13;;
64816;SDS011;69411;45.656;11.740;2023-06-14T09:04:31;7.18;;;4.43;;
64816;SDS011;69411;45.656;11.740;2023-06-14T09:06:58;7.53;;;4.65;;
64816;SDS011;69411;45.656;11.740;2023-06-14T09:09:24;6.60;;;4.75;;
64816;SDS011;69411;45.656;11.740;2023-06-14T09:11:53;7.15;;;4.88;;
64816;SDS011;69411;45.656;11.740;2023-06-14T09:14:21;9.40;;;4.88;;
64816;SDS011;69411;45.656;11.740;2023-06-14T09:16:54;8.27;;;5.10;;
64816;SDS011;69411;45.656;11.740;2023-06-14T09:19:21;10.00;;;4.60;;
64816;SDS011;69411;45.656;11.740;2023-06-14T09:21:49;7.43;;;4.30;;
64816;SDS011;69411;45.656;11.740;2023-06-14T09:24:15;6.05;;;4.57;;
64816;SDS011;69411;45.656;11.740;2023-06-14T09:26:41;7.18;;;4.80;;
64816;SDS011;69411;45.656;11.740;2023-06-14T09:29:07;6.30;;;4.53;;
64816;SDS011;69411;45.656;11.740;2023-06-14T09:31:34;9.70;;;4.57;;
64816;SDS011;69411;45.656;11.740;2023-06-14T09:34:01;6.65;;;4.63;;
64816;SDS011;69411;45.656;11.740;2023-06-14T09:36:28;6.60;;;4.50;;
64816;SDS011;69411;45.656;11.740;2023-06-14T09:38:59;8.10;;;4.97;;
64816;SDS011;69411;45.656;11.740;2023-06-14T09:41:36;7.53;;;4.97;;
64816;SDS011;69411;45.656;11.740;2023-06-14T09:44:04;8.43;;;4.63;;
64816;SDS011;69411;45.656;11.740;2023-06-14T09:46:32;6.88;;;4.72;;
64816;SDS011;69411;45.656;11.740;2023-06-14T09:48:59;7.38;;;4.75;;
64816;SDS011;69411;45.656;11.740;2023-06-14T09:51:27;6.55;;;4.60;;
64816;SDS011;69411;45.656;11.740;2023-06-14T09:53:58;9.00;;;4.55;;
64816;SDS011;69411;45.656;11.740;2023-06-14T09:56:27;6.93;;;4.78;;
64816;SDS011;69411;45.656;11.740;2023-06-14T09:58:57;8.38;;;4.60;;
64816;SDS011;69411;45.656;11.740;2023-06-14T10:01:24;6.13;;;4.90;;
64816;SDS011;69411;45.656;11.740;2023-06-14T10:04:06;8.38;;;4.63;;
64816;SDS011;69411;45.656;11.740;2023-06-14T10:06:38;6.63;;;4.90;;
64816;SDS011;69411;45.656;11.740;2023-06-14T10:09:08;7.25;;;4.80;;
64816;SDS011;69411;45.656;11.740;2023-06-14T10:11:36;7.53;;;4.70;;
64816;SDS011;69411;45.656;11.740;2023-06-14T10:14:08;7.28;;;4.75;;
64816;SDS011;69411;45.656;11.740;2023-06-14T10:16:45;7.75;;;4.90;;
64816;SDS011;69411;45.656;11.740;2023-06-14T10:19:48;7.43;;;4.70;;
64816;SDS011;69411;45.656;11.740;2023-06-14T10:22:18;10.65;;;4.97;;
64816;SDS011;69411;45.656;11.740;2023-06-14T10:24:50;8.40;;;5.20;;
64816;SDS011;69411;45.656;11.740;2023-06-14T10:27:16;8.43;;;5.35;;
64816;SDS011;69411;45.656;11.740;2023-06-14T10:32:18;6.90;;;5.15;;
64816;SDS011;69411;45.656;11.740;2023-06-14T10:34:45;7.10;;;5.00;;
64816;SDS011;69411;45.656;11.740;2023-06-14T10:37:20;6.30;;;4.95;;
64816;SDS011;69411;45.656;11.740;2023-06-14T10:39:46;9.32;;;5.35;;
64816;SDS011;69411;45.656;11.740;2023-06-14T10:42:13;7.45;;;5.03;;
64816;SDS011;69411;45.656;11.740;2023-06-14T10:44:40;6.13;;;4.55;;
64816;SDS011;69411;45.656;11.740;2023-06-14T10:47:10;6.65;;;4.60;;
64816;SDS011;69411;45.656;11.740;2023-06-14T10:49:49;8.55;;;4.97;;
64816;SDS011;69411;45.656;11.740;2023-06-14T10:52:40;8.35;;;5.30;;
64816;SDS011;69411;45.656;11.740;2023-06-14T10:57:46;8.30;;;4.40;;
64816;SDS011;69411;45.656;11.740;2023-06-14T11:00:17;9.02;;;4.95;;
64816;SDS011;69411;45.656;11.740;2023-06-14T11:05:51;8.73;;;5.13;;
64816;SDS011;69411;45.656;11.740;2023-06-14T11:11:05;7.13;;;4.75;;
64816;SDS011;69411;45.656;11.740;2023-06-14T11:13:32;5.45;;;4.28;;
64816;SDS011;69411;45.656;11.740;2023-06-14T11:15:59;7.07;;;4.85;;
64816;SDS011;69411;45.656;11.740;2023-06-14T11:18:25;7.55;;;4.70;;
64816;SDS011;69411;45.656;11.740;2023-06-14T11:20:53;7.60;;;4.35;;
64816;SDS011;69411;45.656;11.740;2023-06-14T11:23:20;5.72;;;4.40;;
64816;SDS011;69411;45.656;11.740;2023-06-14T11:25:51;6.97;;;4.40;;
64816;SDS011;69411;45.656;11.740;2023-06-14T11:28:17;5.65;;;4.10;;
64816;SDS011;69411;45.656;11.740;2023-06-14T11:30:45;6.80;;;4.57;;
64816;SDS011;69411;45.656;11.740;2023-06-14T11:33:15;9.77;;;4.72;;
64816;SDS011;69411;45.656;11.740;2023-06-14T11:35:43;6.57;;;4.47;;
64816;SDS011;69411;45.656;11.740;2023-06-14T11:38:10;7.30;;;4.70;;
64816;SDS011;69411;45.656;11.740;2023-06-14T11:40:37;8.30;;;4.80;;
64816;SDS011;69411;45.656;11.740;2023-06-14T11:43:04;10.40;;;4.85;;
64816;SDS011;69411;45.656;11.740;2023-06-14T11:45:30;6.68;;;4.70;;
64816;SDS011;69411;45.656;11.740;2023-06-14T11:47:57;10.02;;;5.22;;
64816;SDS011;69411;45.656;11.740;2023-06-14T11:50:24;7.03;;;4.75;;
64816;SDS011;69411;45.656;11.740;2023-06-14T11:55:20;9.00;;;4.95;;
64816;SDS011;69411;45.656;11.740;2023-06-14T11:57:47;8.35;;;4.30;;
64816;SDS011;69411;45.656;11.740;2023-06-14T12:00:13;6.70;;;4.40;;
64816;SDS011;69411;45.656;11.740;2023-06-14T12:02:41;6.38;;;4.20;;
64816;SDS011;69411;45.656;11.740;2023-06-14T12:05:07;7.05;;;5.03;;
64816;SDS011;69411;45.656;11.740;2023-06-14T12:07:37;5.05;;;3.92;;
64816;SDS011;69411;45.656;11.740;2023-06-14T12:10:05;7.45;;;4.45;;
64816;SDS011;69411;45.656;11.740;2023-06-14T12:12:36;8.95;;;4.32;;
64816;SDS011;69411;45.656;11.740;2023-06-14T12:15:07;6.07;;;4.35;;
64816;SDS011;69411;45.656;11.740;2023-06-14T12:17:35;7.13;;;4.70;;
64816;SDS011;69411;45.656;11.740;2023-06-14T12:20:07;8.60;;;5.30;;
64816;SDS011;69411;45.656;11.740;2023-06-14T12:22:53;6.85;;;4.90;;
64816;SDS011;69411;45.656;11.740;2023-06-14T12:25:27;7.30;;;4.88;;
64816;SDS011;69411;45.656;11.740;2023-06-14T12:27:56;8.55;;;4.85;;
64816;SDS011;69411;45.656;11.740;2023-06-14T12:30:23;9.20;;;4.88;;
64816;SDS011;69411;45.656;11.740;2023-06-14T12:32:49;7.47;;;4.97;;
64816;SDS011;69411;45.656;11.740;2023-06-14T12:35:17;9.27;;;4.68;;
64816;SDS011;69411;45.656;11.740;2023-06-14T12:37:44;7.00;;;4.38;;
64816;SDS011;69411;45.656;11.740;2023-06-14T12:40:11;6.03;;;4.70;;
64816;SDS011;69411;45.656;11.740;2023-06-14T12:42:37;7.03;;;4.30;;
64816;SDS011;69411;45.656;11.740;2023-06-14T12:45:04;6.65;;;4.70;;
64816;SDS011;69411;45.656;11.740;2023-06-14T12:47:30;6.10;;;4.00;;
64816;SDS011;69411;45.656;11.740;2023-06-14T12:49:56;7.07;;;4.45;;
64816;SDS011;69411;45.656;11.740;2023-06-14T12:52:22;6.28;;;4.22;;
64816;SDS011;69411;45.656;11.740;2023-06-14T12:54:48;8.38;;;4.85;;
64816;SDS011;69411;45.656;11.740;2023-06-14T12:57:14;6.75;;;4.88;;
64816;SDS011;69411;45.656;11.740;2023-06-14T12:59:40;8.70;;;4.20;;
64816;SDS011;69411;45.656;11.740;2023-06-14T13:02:16;5.78;;;4.15;;
64816;SDS011;69411;45.656;11.740;2023-06-14T13:04:43;7.28;;;4.65;;
64816;SDS011;69411;45.656;11.740;2023-06-14T13:07:09;12.60;;;4.90;;
64816;SDS011;69411;45.656;11.740;2023-06-14T13:09:40;5.90;;;4.40;;
64816;SDS011;69411;45.656;11.740;2023-06-14T13:12:07;5.30;;;4.45;;
64816;SDS011;69411;45.656;11.740;2023-06-14T13:14:36;8.23;;;4.80;;
64816;SDS011;69411;45.656;11.740;2023-06-14T13:17:03;6.97;;;5.13;;
64816;SDS011;69411;45.656;11.740;2023-06-14T13:19:29;7.28;;;4.40;;
64816;SDS011;69411;45.656;11.740;2023-06-14T13:21:55;5.80;;;4.50;;
64816;SDS011;69411;45.656;11.740;2023-06-14T13:24:21;7.60;;;5.00;;
64816;SDS011;69411;45.656;11.740;2023-06-14T13:26:47;5.85;;;4.40;;
64816;SDS011;69411;45.656;11.740;2023-06-14T13:29:13;7.53;;;4.78;;
64816;SDS011;69411;45.656;11.740;2023-06-14T13:31:39;5.55;;;4.63;;
64816;SDS011;69411;45.656;11.740;2023-06-14T13:34:05;6.30;;;4.40;;
64816;SDS011;69411;45.656;11.740;2023-06-14T13:36:31;7.78;;;4.82;;
64816;SDS011;69411;45.656;11.740;2023-06-14T13:38:57;6.85;;;4.78;;
64816;SDS011;69411;45.656;11.740;2023-06-14T13:41:25;7.95;;;5.15;;
64816;SDS011;69411;45.656;11.740;2023-06-14T13:43:58;9.40;;;4.93;;
64816;SDS011;69411;45.656;11.740;2023-06-14T13:46:26;7.53;;;4.93;;
64816;SDS011;69411;45.656;11.740;2023-06-14T13:49:02;6.03;;;4.65;;
64816;SDS011;69411;45.656;11.740;2023-06-14T13:51:30;6.70;;;4.60;;
64816;SDS011;69411;45.656;11.740;2023-06-14T13:53:57;6.60;;;4.03;;
64816;SDS011;69411;45.656;11.740;2023-06-14T13:56:23;5.60;;;4.55;;
64816;SDS011;69411;45.656;11.740;2023-06-14T13:58:49;7.93;;;4.78;;
64816;SDS011;69411;45.656;11.740;2023-06-14T14:01:17;5.80;;;4.05;;
64816;SDS011;69411;45.656;11.740;2023-06-14T14:03:45;7.03;;;4.40;;
64816;SDS011;69411;45.656;11.740;2023-06-14T14:06:11;5.75;;;4.10;;
64816;SDS011;69411;45.656;11.740;2023-06-14T14:08:38;6.22;;;4.50;;
64816;SDS011;69411;45.656;11.740;2023-06-14T14:11:04;7.22;;;3.90;;
64816;SDS011;69411;45.656;11.740;2023-06-14T14:13:31;8.05;;;4.50;;
64816;SDS011;69411;45.656;11.740;2023-06-14T14:15:57;5.95;;;3.95;;
64816;SDS011;69411;45.656;11.740;2023-06-14T14:18:24;6.55;;;4.07;;
64816;SDS011;69411;45.656;11.740;2023-06-14T14:20:50;5.15;;;3.90;;
64816;SDS011;69411;45.656;11.740;2023-06-14T14:23:16;5.65;;;4.15;;
64816;SDS011;69411;45.656;11.740;2023-06-14T14:25:42;6.40;;;3.90;;
64816;SDS011;69411;45.656;11.740;2023-06-14T14:28:08;6.93;;;3.80;;
64816;SDS011;69411;45.656;11.740;2023-06-14T14:30:34;6.13;;;4.05;;
64816;SDS011;69411;45.656;11.740;2023-06-14T14:33:00;6.88;;;3.97;;
64816;SDS011;69411;45.656;11.740;2023-06-14T14:35:26;5.22;;;3.72;;
64816;SDS011;69411;45.656;11.740;2023-06-14T14:37:56;6.43;;;4.20;;
64816;SDS011;69411;45.656;11.740;2023-06-14T14:40:22;4.80;;;3.60;;
64816;SDS011;69411;45.656;11.740;2023-06-14T14:42:48;6.13;;;4.45;;
64816;SDS011;69411;45.656;11.740;2023-06-14T14:45:14;4.88;;;3.92;;
64816;SDS011;69411;45.656;11.740;2023-06-14T14:47:40;9.02;;;4.18;;